Westchester, IL

9:26 AM CDT on October 23, 2014 (GMT -0500)
Mr. Hammes's Weather | Change Station
CLOSE
Current Station
Personal Weather Station
Location: Westchester, IL
Elevation: 641 ft
Nearby Weather Stations

Elev 641 ft 41.85 °N, 87.87 °W | Updated 8 seconds ago

Mostly Cloudy
Mostly Cloudy
45.5 °F
Feels Like 43 °F
N
4.6
Wind Variable Wind from SSW
Gusts 4.6 mph

Today
High -- | Low -- °F
--% Chance of Precip.
Yesterday
High -- | Low -- °F
Precip. -- in
7:13 AM 5:57 PM
Waning Crescent, 0% visible
Pressure 30.25 in
Visibility 9.0 miles
Clouds Few 25000 ft
Mostly Cloudy 30000 ft
Windchill 43 °F
Dew Point 42 °F
Humidity 89%
Rainfall 0.00 in
Snow Depth Not available.
UV 1 out of 12
Pollen .30 out of 12
Ozone Good
PM2.5 Moderate
Flu Activity No Activity
METAR KMDW 231353Z 20006KT 9SM FEW250 BKN300 07/04 A3023 RMK AO2 SLP241 T00720044

More Conditions Fewer Conditions

Pressure 30.25 in
Visibility 9.0 miles
Clouds Few 25000 ft
Mostly Cloudy 30000 ft
Windchill 43 °F
Dew Point 42 °F
Humidity 89%
Rainfall 0.00 in
Snow Depth Not available.
UV 1 out of 12
Pollen .30 out of 12
Ozone Good
PM2.5 Moderate
Flu Activity No Activity
METAR KMDW 231353Z 20006KT 9SM FEW250 BKN300 07/04 A3023 RMK AO2 SLP241 T00720044

More Conditions Fewer Conditions

10-Day Weather Forecast

Almanac

Astronomy

Oct. 23, 2014 Rise Set
Actual Time 7:13 AM CDT 5:57 PM CDT
Civil Twilight 6:44 AM CDT 6:26 PM CDT
Nautical Twilight 6:12 AM CDT 6:58 PM CDT
Astronomical Twilight 5:39 AM CDT 7:31 PM CDT
Moon 6:52 AM CDT 5:59 PM CDT
Length of Visible Light 11h 41m
Length of Day
10h 44m
Tomorrow will be 2m 36s shorter.
Waning Crescent, 0% of the Moon is Illuminated
Today
Waning Crescent
Oct 23
New
Oct 30
First Quarter
Nov 6
Full
Nov 14
Last Quarter

Today's Extremes

State Highs State Lows

Community

WunderPhotos

Upload Photos

1,764,265 photos uploaded!

Nearby

Air Quality

  Air Quality AQ Index Pollutant
Yesterday Good
PM2.5
Yesterday Good
OZONE
Current Moderate
PM2.5
Current Good
OZONE
Thursday Moderate
PM2.5
Friday Good
PM2.5
Saturday Moderate
PM2.5
Sunday Moderate
PM2.5

Snow Depth

Station Depth Elevation
No new snow has been reported.

Earthquake Activity

City Distance Mag. Time & Date
No recent earthquake activity has been reported nearby.
Minimum magnitude displayed is 2.5.

Coastal Water Temperatures

Place Temperature
No Stations Reporting

Nearby Weather Stations